Time;durP1;ratioP1;P1;durP2;ratioP2;P2;SDS_P1;SDS_P2;PMS_P1;PMS_P2;Temp;Humidity;BMP_temperature;BMP_pressure;BME280_temperature;BME280_humidity;BME280_pressure;Samples;Min_cycle;Max_cycle;Signal;HPM_P1;HPM_P2
2022/12/02 00:01:27;;;;;;;61.33;37.10;;;;;;;5.28;97.56;102423.69;5086196;28;20033;-74
2022/12/02 00:03:52;;;;;;;59.75;35.60;;;;;;;5.28;97.96;102415.69;5089889;28;20032;-74
2022/12/02 00:06:28;;;;;;;64.07;39.55;;;;;;;5.27;97.50;102417.50;5087900;28;20028;-74
2022/12/02 00:08:58;;;;;;;64.40;36.92;;;;;;;5.23;97.35;102419.34;5088648;28;20083;-74
2022/12/02 00:11:29;;;;;;;63.15;36.47;;;;;;;5.24;97.88;102422.88;5088120;28;20499;-74
2022/12/02 00:13:57;;;;;;;69.25;42.05;;;;;;;5.24;97.35;102423.78;5090015;28;20091;-74
2022/12/02 00:16:24;;;;;;;73.90;41.97;;;;;;;5.25;97.41;102417.50;5084543;28;20044;-74
2022/12/02 00:18:50;;;;;;;71.78;42.42;;;;;;;5.25;96.51;102419.31;5082069;28;20044;-74
2022/12/02 00:21:16;;;;;;;75.65;43.15;;;;;;;5.24;95.22;102414.88;5090131;28;20042;-74
2022/12/02 00:23:42;;;;;;;72.15;41.20;;;;;;;5.21;94.58;102410.53;5091888;28;20036;-74
2022/12/02 00:26:07;;;;;;;75.22;42.33;;;;;;;5.19;94.72;102409.66;5090587;28;20411;-74
2022/12/02 00:28:33;;;;;;;80.45;42.85;;;;;;;5.17;95.05;102405.28;5089809;28;20028;-74
2022/12/02 00:30:58;;;;;;;74.13;43.88;;;;;;;5.16;94.45;102415.09;5086723;28;20029;-74
2022/12/02 00:33:23;;;;;;;64.43;39.30;;;;;;;5.17;94.08;102408.84;5079727;28;20221;-74
2022/12/02 00:35:48;;;;;;;60.67;38.55;;;;;;;5.16;94.16;102398.22;5079861;28;20035;-74
2022/12/02 00:38:14;;;;;;;66.15;40.63;;;;;;;5.13;92.53;102400.97;5083756;28;20029;-74
2022/12/02 00:40:40;;;;;;;62.28;38.55;;;;;;;5.08;92.46;102401.06;5078901;28;20120;-74
2022/12/02 00:48:34;;;;;;;58.40;38.38;;;;;;;5.01;91.92;102388.84;5088522;28;20061;-74
2022/12/02 00:50:59;;;;;;;55.85;34.42;;;;;;;5.01;91.71;102391.50;5088377;28;20040;-74
2022/12/02 00:53:24;;;;;;;61.63;36.97;;;;;;;5.00;91.34;102397.72;5088747;28;20058;-74
2022/12/02 00:55:50;;;;;;;65.30;37.20;;;;;;;4.99;91.23;102386.22;5087098;28;20058;-74
2022/12/02 00:58:15;;;;;;;67.88;37.65;;;;;;;4.99;91.92;102386.22;5091170;28;20028;-74
2022/12/02 01:00:41;;;;;;;69.68;39.95;;;;;;;4.98;92.00;102388.88;5091746;28;20043;-74
2022/12/02 01:03:06;;;;;;;56.60;35.92;;;;;;;4.97;91.47;102388.03;5080908;28;20021;-74
2022/12/02 01:05:31;;;;;;;61.28;37.78;;;;;;;4.96;91.70;102388.06;5089316;28;20047;-74
2022/12/02 01:07:57;;;;;;;58.05;35.22;;;;;;;4.90;91.49;102389.97;5092158;28;20028;-74
2022/12/02 01:10:22;;;;;;;58.05;34.75;;;;;;;4.89;92.08;102382.00;5090147;28;20062;-74
2022/12/02 01:12:47;;;;;;;66.18;37.42;;;;;;;4.88;92.30;102378.47;5089906;28;20036;-74
2022/12/02 01:15:13;;;;;;;63.80;37.78;;;;;;;4.89;92.80;102387.31;5090906;28;20032;-74
2022/12/02 01:17:38;;;;;;;62.70;35.47;;;;;;;4.87;91.79;102391.81;5091444;28;20025;-74
2022/12/02 01:20:04;;;;;;;60.38;36.72;;;;;;;4.83;91.88;102383.06;5085527;28;20024;-74
2022/12/02 01:22:29;;;;;;;68.35;36.42;;;;;;;4.82;91.66;102383.09;5088248;28;20004;-74
2022/12/02 01:24:54;;;;;;;61.53;35.28;;;;;;;4.78;92.04;102382.28;5091664;28;20032;-74
2022/12/02 01:27:20;;;;;;;56.13;35.30;;;;;;;4.79;91.97;102383.13;5091186;28;20027;-74
2022/12/02 01:29:45;;;;;;;62.88;33.80;;;;;;;4.79;91.95;102385.81;5091543;28;20031;-74
2022/12/02 01:32:10;;;;;;;60.40;34.25;;;;;;;4.77;91.86;102388.50;5091132;28;20013;-74
2022/12/02 01:34:35;;;;;;;59.67;34.80;;;;;;;4.78;91.95;102387.59;5077350;28;20101;-74
2022/12/02 01:37:01;;;;;;;54.90;35.25;;;;;;;4.80;91.79;102388.47;5078549;28;20025;-74
2022/12/02 01:39:26;;;;;;;61.35;36.42;;;;;;;4.81;91.49;102384.00;5086104;28;20008;-74
2022/12/02 01:41:51;;;;;;;56.83;34.95;;;;;;;4.80;92.59;102384.91;5083246;28;20025;-74
2022/12/02 01:44:17;;;;;;;60.15;33.08;;;;;;;4.77;91.81;102380.50;5090055;28;20032;-74
2022/12/02 01:46:42;;;;;;;59.58;34.63;;;;;;;4.74;92.12;102385.91;5092640;28;20012;-74
2022/12/02 01:49:08;;;;;;;57.78;36.12;;;;;;;4.69;92.83;102385.16;5051641;28;1082231;-74
2022/12/02 01:51:33;;;;;;;62.15;34.75;;;;;;;4.66;92.91;102388.78;5092428;28;20036;-74
2022/12/02 01:53:58;;;;;;;60.70;35.45;;;;;;;4.64;93.36;102389.72;5093546;28;20057;-74
2022/12/02 01:56:26;;;;;;;59.13;35.22;;;;;;;4.63;93.93;102385.31;5093970;28;20036;-74
2022/12/02 01:58:51;;;;;;;58.92;35.45;;;;;;;4.63;93.48;102383.53;5094349;28;20025;-74
2022/12/02 02:01:25;;;;;;;62.05;37.65;;;;;;;4.64;93.03;102379.06;5076257;28;20028;-75
2022/12/02 02:03:50;;;;;;;59.97;35.83;;;;;;;4.63;93.23;102380.00;5067073;28;20035;-75
2022/12/02 02:06:15;;;;;;;60.50;35.35;;;;;;;4.61;93.55;102381.81;5067684;28;20430;-75
2022/12/02 02:08:41;;;;;;;54.33;33.70;;;;;;;4.60;93.04;102378.28;5053274;28;20095;-75
2022/12/02 02:11:06;;;;;;;59.53;34.55;;;;;;;4.61;93.30;102373.81;5060959;28;20424;-75
2022/12/02 02:13:31;;;;;;;57.17;35.50;;;;;;;4.61;93.52;102379.13;5070147;28;20028;-75
2022/12/02 02:15:57;;;;;;;54.50;34.83;;;;;;;4.61;93.19;102374.72;5071737;28;20033;-75
2022/12/02 02:18:22;;;;;;;54.20;32.33;;;;;;;4.60;93.45;102375.59;5072706;28;20036;-75
2022/12/02 02:20:48;;;;;;;59.50;32.40;;;;;;;4.61;93.52;102373.81;5073026;28;20024;-75
2022/12/02 02:23:24;;;;;;;57.03;32.72;;;;;;;4.59;93.09;102370.31;5072604;28;20082;-75
2022/12/02 02:25:58;;;;;;;62.60;35.45;;;;;;;4.56;92.93;102376.59;5070728;28;20036;-75
2022/12/02 02:28:25;;;;;;;62.40;34.85;;;;;;;4.53;93.39;102369.53;5072529;28;20103;-75
2022/12/02 02:30:53;;;;;;;57.30;34.88;;;;;;;4.52;93.03;102370.47;5067345;28;20028;-75
2022/12/02 02:33:21;;;;;;;53.13;33.58;;;;;;;4.50;93.76;102366.09;5066305;28;20067;-75
2022/12/02 02:35:47;;;;;;;58.70;34.88;;;;;;;4.50;93.36;102366.94;5049708;28;20017;-75
2022/12/02 02:38:16;;;;;;;69.25;36.67;;;;;;;4.49;93.11;102372.31;5060602;28;20479;-75
2022/12/02 02:40:42;;;;;;;58.95;35.60;;;;;;;4.50;93.42;102369.63;5069003;28;20021;-75
2022/12/02 02:43:09;;;;;;;59.78;33.75;;;;;;;4.48;93.23;102365.22;5070864;28;20484;-75
2022/12/02 02:45:36;;;;;;;61.45;32.97;;;;;;;4.44;93.15;102363.59;5071417;28;20411;-75
2022/12/02 02:48:04;;;;;;;55.90;32.33;;;;;;;4.41;92.73;102356.53;5072415;28;20373;-75
2022/12/02 02:50:30;;;;;;;59.50;34.65;;;;;;;4.41;92.92;102352.97;5072076;28;20135;-75
2022/12/02 02:52:56;;;;;;;61.33;34.97;;;;;;;4.40;92.83;102346.78;5071876;28;20039;-75
2022/12/02 02:55:25;;;;;;;55.80;34.40;;;;;;;4.38;92.86;102356.59;5070492;28;20054;-75
2022/12/02 02:57:51;;;;;;;58.40;34.80;;;;;;;4.34;92.03;102354.91;5071772;28;20028;-75
2022/12/02 03:00:18;;;;;;;57.50;33.80;;;;;;;4.37;91.84;102349.53;5070364;28;20034;-75
2022/12/02 03:02:47;;;;;;;61.17;35.13;;;;;;;4.36;91.31;102350.41;5071927;28;20024;-75
2022/12/02 03:05:12;;;;;;;59.28;35.97;;;;;;;4.33;90.22;102353.16;5064095;28;20032;-75
2022/12/02 03:07:37;;;;;;;60.58;34.10;;;;;;;4.25;89.73;102344.50;5067305;28;20031;-75
2022/12/02 03:10:05;;;;;;;59.58;33.40;;;;;;;4.22;89.97;102341.88;5072098;28;20017;-75
2022/12/02 03:12:31;;;;;;;57.88;34.33;;;;;;;4.18;90.37;102339.28;5071732;28;20431;-75
2022/12/02 03:14:57;;;;;;;52.92;33.65;;;;;;;4.13;89.69;102330.53;5069963;28;20040;-75
2022/12/02 03:17:23;;;;;;;52.95;31.88;;;;;;;4.08;90.26;102335.06;5071763;28;20036;-75
2022/12/02 03:19:49;;;;;;;49.92;28.88;;;;;;;4.08;90.52;102331.56;5069627;28;20404;-75
2022/12/02 03:22:14;;;;;;;54.03;32.78;;;;;;;4.07;89.54;102333.34;5061382;28;20028;-75
2022/12/02 03:24:40;;;;;;;52.28;30.85;;;;;;;4.08;90.22;102326.22;5068404;28;20024;-75
2022/12/02 03:27:08;;;;;;;56.00;30.90;;;;;;;4.04;89.01;102320.09;5070412;28;20035;-75
2022/12/02 03:29:33;;;;;;;51.70;29.58;;;;;;;4.03;88.79;102336.97;5071798;28;20048;-75
2022/12/02 03:32:00;;;;;;;48.92;30.67;;;;;;;4.03;89.22;102329.00;5065919;28;20097;-75
2022/12/02 03:34:26;;;;;;;48.63;30.50;;;;;;;4.00;88.90;102339.72;5070634;28;20099;-75
2022/12/02 03:36:52;;;;;;;51.97;29.95;;;;;;;3.98;89.09;102339.75;5048378;28;20033;-74
2022/12/02 03:39:17;;;;;;;52.45;30.83;;;;;;;3.95;88.33;102341.59;5065854;28;20169;-75
2022/12/02 03:41:45;;;;;;;50.00;29.65;;;;;;;3.93;88.55;102335.44;5070100;28;20363;-75
2022/12/02 03:44:10;;;;;;;50.65;29.60;;;;;;;3.88;88.13;102329.31;5068603;28;20410;-75
2022/12/02 03:46:35;;;;;;;56.13;30.42;;;;;;;3.84;87.56;102328.53;5069878;28;20035;-75
2022/12/02 03:49:02;;;;;;;49.15;28.67;;;;;;;3.82;88.21;102320.59;5071839;28;20032;-75
2022/12/02 03:51:28;;;;;;;54.75;30.80;;;;;;;3.79;88.27;102323.31;5072070;28;20040;-75
2022/12/02 03:53:53;;;;;;;51.40;30.83;;;;;;;3.77;87.55;102322.44;5070357;28;20406;-75
2022/12/02 03:56:19;;;;;;;51.65;30.13;;;;;;;3.76;88.30;102315.38;5073660;28;20029;-75
2022/12/02 03:58:48;;;;;;;46.05;28.30;;;;;;;3.79;89.09;102320.66;5073065;28;20512;-75
2022/12/02 04:01:15;;;;;;;53.47;30.88;;;;;;;3.81;88.60;102318.81;5064781;28;20032;-75
2022/12/02 04:03:41;;;;;;;49.72;28.67;;;;;;;3.79;88.60;102310.00;5072593;28;20037;-75
2022/12/02 04:06:06;;;;;;;58.63;31.73;;;;;;;3.81;87.69;102310.84;5072350;28;20060;-75
2022/12/02 04:08:32;;;;;;;52.97;30.75;;;;;;;3.77;87.96;102303.84;5072893;28;20094;-75
2022/12/02 04:10:57;;;;;;;53.05;28.10;;;;;;;3.78;87.82;102307.38;5071188;28;20039;-75
2022/12/02 04:13:22;;;;;;;50.03;30.48;;;;;;;3.76;88.35;102309.19;5073847;28;20035;-75
2022/12/02 04:15:47;;;;;;;50.17;29.10;;;;;;;3.76;88.32;102309.19;5073895;28;20028;-75
2022/12/02 04:18:13;;;;;;;48.13;29.73;;;;;;;3.73;88.84;102315.44;5073316;28;20072;-75
2022/12/02 04:20:38;;;;;;;56.00;31.15;;;;;;;3.70;89.02;102304.88;5073082;28;20028;-75
2022/12/02 04:23:03;;;;;;;57.80;32.13;;;;;;;3.71;89.19;102311.94;5075305;28;20024;-75
2022/12/02 04:25:29;;;;;;;52.63;29.20;;;;;;;3.71;89.12;102301.31;5071667;28;20391;-75
2022/12/02 04:27:54;;;;;;;58.00;29.55;;;;;;;3.73;89.59;102304.78;5072948;28;20497;-75
2022/12/02 04:30:19;;;;;;;53.15;29.20;;;;;;;3.74;88.83;102295.06;5073459;28;20040;-75
2022/12/02 04:32:45;;;;;;;46.55;25.55;;;;;;;3.72;89.30;102291.53;5071633;28;20044;-75
2022/12/02 04:35:10;;;;;;;55.92;30.65;;;;;;;3.70;89.11;102296.88;5065055;28;20071;-75
2022/12/02 04:37:35;;;;;;;50.28;25.42;;;;;;;3.68;89.58;102302.25;5058272;28;20480;-75
2022/12/02 04:40:01;;;;;;;53.65;27.58;;;;;;;3.67;89.44;102295.19;5073816;28;20032;-75
2022/12/02 04:42:26;;;;;;;52.00;28.20;;;;;;;3.67;89.85;102297.84;5070768;28;20468;-75
2022/12/02 04:44:51;;;;;;;53.72;29.27;;;;;;;3.66;90.11;102300.50;5071393;28;20036;-75
2022/12/02 04:47:16;;;;;;;50.05;28.65;;;;;;;3.67;90.06;102295.19;5073596;28;20442;-75
2022/12/02 04:49:42;;;;;;;54.30;28.17;;;;;;;3.65;89.38;102302.31;5072873;28;20549;-75
2022/12/02 04:52:07;;;;;;;47.55;27.77;;;;;;;3.64;89.96;102297.03;5073121;28;20036;-75
2022/12/02 04:54:32;;;;;;;46.70;26.70;;;;;;;3.60;89.61;102284.69;5073524;28;20090;-75
2022/12/02 04:56:57;;;;;;;49.15;26.52;;;;;;;3.57;89.52;102282.09;5068528;28;20112;-75
2022/12/02 04:59:23;;;;;;;46.88;26.33;;;;;;;3.53;88.79;102293.72;5072758;28;20032;-75
2022/12/02 05:01:48;;;;;;;47.22;27.10;;;;;;;3.54;89.13;102288.34;5071935;28;20032;-75
2022/12/02 05:04:13;;;;;;;44.03;25.88;;;;;;;3.56;89.09;102281.25;5067903;28;20428;-75
2022/12/02 05:06:38;;;;;;;44.95;25.55;;;;;;;3.55;88.74;102282.16;5072891;28;20036;-75
2022/12/02 05:09:04;;;;;;;46.40;25.40;;;;;;;3.54;88.42;102272.41;5072451;28;20024;-75
2022/12/02 05:11:29;;;;;;;47.08;25.67;;;;;;;3.56;87.78;102278.59;5072443;28;20036;-75
2022/12/02 05:13:54;;;;;;;40.67;22.15;;;;;;;3.54;87.43;102275.06;5069653;28;20036;-75
2022/12/02 05:16:19;;;;;;;42.72;22.73;;;;;;;3.53;86.26;102280.41;5067076;28;20028;-75
2022/12/02 05:18:45;;;;;;;43.25;22.00;;;;;;;3.51;86.37;102275.13;5071491;28;20430;-75
2022/12/02 05:21:10;;;;;;;39.33;21.90;;;;;;;3.52;87.02;102265.41;5068899;28;20024;-75
2022/12/02 05:23:35;;;;;;;45.47;24.85;;;;;;;3.49;86.57;102263.66;5068017;28;20056;-75
2022/12/02 05:26:00;;;;;;;47.42;24.83;;;;;;;3.50;87.24;102265.44;5072314;28;20043;-75
2022/12/02 05:28:26;;;;;;;40.50;21.90;;;;;;;3.49;87.17;102264.53;5062201;28;20040;-75
2022/12/02 05:30:51;;;;;;;45.40;24.55;;;;;;;3.50;87.89;102266.28;5067892;28;20098;-75
2022/12/02 05:33:16;;;;;;;45.47;24.73;;;;;;;3.48;87.38;102265.47;5072680;28;20429;-75
2022/12/02 05:35:42;;;;;;;38.92;22.15;;;;;;;3.47;88.32;102273.44;5066705;28;20036;-75
2022/12/02 05:38:07;;;;;;;42.65;22.08;;;;;;;3.49;88.64;102277.81;5060279;28;20029;-75
2022/12/02 05:40:32;;;;;;;44.20;24.77;;;;;;;3.51;88.57;102272.47;5072097;28;20037;-75
2022/12/02 05:43:12;;;;;;;41.53;22.88;;;;;;;3.53;88.39;102270.69;5070649;28;20074;-75
2022/12/02 05:45:38;;;;;;;45.53;24.17;;;;;;;3.54;88.14;102252.94;5071638;28;20107;-75
2022/12/02 05:48:09;;;;;;;44.08;23.95;;;;;;;3.57;88.55;102258.19;5071540;28;20111;-75
2022/12/02 05:50:34;;;;;;;42.50;24.42;;;;;;;3.56;87.37;102257.31;5071521;28;20056;-75
2022/12/02 05:52:59;;;;;;;41.28;23.38;;;;;;;3.57;87.19;102255.53;5057628;28;20450;-75
2022/12/02 05:55:24;;;;;;;40.72;23.20;;;;;;;3.60;87.49;102260.78;5071443;28;21152;-75
2022/12/02 05:57:50;;;;;;;44.80;23.10;;;;;;;3.56;86.29;102264.41;5071811;28;20032;-75
2022/12/02 06:00:21;;;;;;;39.20;20.77;;;;;;;3.54;86.82;102267.09;5069918;28;20071;-75
2022/12/02 06:02:46;;;;;;;43.78;21.60;;;;;;;3.55;87.39;102262.66;5071412;28;20066;-75
2022/12/02 06:05:18;;;;;;;40.42;21.13;;;;;;;3.54;87.26;102251.13;5068121;28;20033;-75
2022/12/02 06:07:43;;;;;;;42.63;20.92;;;;;;;3.54;87.42;102264.44;5058093;28;20077;-75
2022/12/02 06:10:20;;;;;;;38.15;20.60;;;;;;;3.54;87.12;102260.91;5061966;28;20468;-75
2022/12/02 06:12:45;;;;;;;38.80;20.75;;;;;;;3.53;87.07;102261.81;5068339;28;20044;-75
2022/12/02 06:15:14;;;;;;;38.35;20.70;;;;;;;3.52;87.83;102260.09;5071624;28;20496;-75
2022/12/02 06:17:39;;;;;;;40.63;20.15;;;;;;;3.49;87.11;102264.53;5071241;28;20487;-75
2022/12/02 06:20:05;;;;;;;41.05;21.30;;;;;;;3.49;86.30;102269.00;5070984;28;20108;-75
2022/12/02 06:22:32;;;;;;;38.42;20.02;;;;;;;3.46;86.85;102261.06;5070963;28;20016;-75
2022/12/02 06:25:02;;;;;;;38.20;18.98;;;;;;;3.43;86.04;102264.66;5069716;28;20104;-75
2022/12/02 06:27:28;;;;;;;39.85;21.40;;;;;;;3.40;86.60;102262.06;5082362;28;20025;-75
2022/12/02 06:30:01;;;;;;;41.75;20.58;;;;;;;3.39;87.40;102257.66;5061434;28;20039;-75
2022/12/02 06:32:37;;;;;;;42.20;19.70;;;;;;;3.39;88.11;102252.34;5070541;28;20028;-75
2022/12/02 06:35:15;;;;;;;42.05;20.55;;;;;;;3.41;87.40;102263.84;5064878;28;20051;-75
2022/12/02 06:37:41;;;;;;;38.13;21.40;;;;;;;3.42;87.29;102268.22;5057772;28;20274;-75
2022/12/02 06:40:22;;;;;;;39.65;20.80;;;;;;;3.43;87.91;102259.34;5068404;28;20024;-75
2022/12/02 06:42:47;;;;;;;41.92;20.77;;;;;;;3.43;87.49;102254.03;5071910;28;20437;-75
2022/12/02 06:45:12;;;;;;;40.08;20.42;;;;;;;3.44;87.22;102261.13;5070509;28;20150;-75
2022/12/02 06:47:40;;;;;;;38.10;20.85;;;;;;;3.45;86.77;102257.53;5067603;28;20028;-75
2022/12/02 06:50:06;;;;;;;41.67;20.35;;;;;;;3.46;86.50;102255.75;5070765;28;20048;-75
2022/12/02 06:52:43;;;;;;;40.95;19.45;;;;;;;3.48;87.23;102252.19;5069769;28;20033;-75
2022/12/02 06:55:21;;;;;;;42.30;20.88;;;;;;;3.48;87.17;102256.59;5070037;28;20024;-75
2022/12/02 06:57:46;;;;;;;40.42;18.38;;;;;;;3.44;87.25;102258.47;5069016;28;20074;-75
2022/12/02 07:00:12;;;;;;;41.10;21.38;;;;;;;3.42;87.83;102256.72;5068334;28;20099;-75
2022/12/02 07:02:39;;;;;;;37.42;20.23;;;;;;;3.41;87.80;102254.97;5062397;28;20533;-75
2022/12/02 07:05:05;;;;;;;35.75;18.60;;;;;;;3.41;87.36;102255.88;5059479;28;20021;-77
2022/12/02 07:07:32;;;;;;;36.83;18.90;;;;;;;3.43;88.49;102264.66;5065904;28;20029;-76
2022/12/02 07:10:00;;;;;;;38.47;20.27;;;;;;;3.43;88.11;102262.00;5064136;28;20028;-77
2022/12/02 07:12:35;;;;;;;38.75;19.88;;;;;;;3.41;88.08;102260.28;5062591;28;20036;-77
2022/12/02 07:15:19;;;;;;;35.90;20.15;;;;;;;3.42;87.62;102267.34;5060527;28;20495;-76
2022/12/02 07:17:44;;;;;;;38.00;20.02;;;;;;;3.40;87.37;102269.19;5064305;28;20059;-77
2022/12/02 07:20:30;;;;;;;36.05;19.17;;;;;;;3.44;88.43;102265.53;5064064;28;20025;-78
2022/12/02 07:22:59;;;;;;;42.42;20.50;;;;;;;3.41;87.71;102270.91;5065054;28;20032;-76
2022/12/02 07:25:37;;;;;;;38.03;22.08;;;;;;;3.41;88.04;102276.22;5064643;28;20584;-76
2022/12/02 07:28:16;;;;;;;38.35;19.77;;;;;;;3.41;88.74;102271.81;5065761;28;20029;-76
2022/12/02 07:30:42;;;;;;;40.00;20.75;;;;;;;3.41;89.07;102268.25;5061680;28;20116;-77
2022/12/02 07:33:07;;;;;;;35.25;17.85;;;;;;;3.41;88.33;102273.56;5064830;28;20540;-77
2022/12/02 07:35:32;;;;;;;38.45;20.15;;;;;;;3.39;87.76;102270.94;5060170;28;20033;-77
2022/12/02 07:37:58;;;;;;;35.45;18.55;;;;;;;3.38;88.67;102271.84;5052510;28;20170;-76
2022/12/02 07:40:23;;;;;;;34.45;18.42;;;;;;;3.39;89.04;102268.28;5066540;28;20044;-77
2022/12/02 07:42:49;;;;;;;37.55;18.55;;;;;;;3.36;88.22;102264.84;5067234;28;20499;-77
2022/12/02 07:45:17;;;;;;;35.40;17.65;;;;;;;3.38;88.90;102258.56;5061095;28;20081;-78
2022/12/02 07:47:43;;;;;;;35.42;16.92;;;;;;;3.37;88.44;102256.84;5065089;28;20025;-75
2022/12/02 07:50:10;;;;;;;35.63;17.98;;;;;;;3.35;88.98;102263.94;5062125;28;20506;-76
2022/12/02 07:52:35;;;;;;;32.85;16.52;;;;;;;3.35;88.81;102263.06;5065747;28;20043;-73
2022/12/02 07:55:01;;;;;;;35.00;18.02;;;;;;;3.31;87.66;102259.63;5065695;28;20423;-74
2022/12/02 07:57:27;;;;;;;38.35;19.65;;;;;;;3.29;88.03;102256.09;5066807;28;20498;-74
2022/12/02 07:59:52;;;;;;;34.40;16.63;;;;;;;3.28;87.83;102267.63;5065581;28;20106;-74
2022/12/02 08:02:17;;;;;;;34.97;17.00;;;;;;;3.26;87.74;102267.66;5062562;28;20348;-74
2022/12/02 08:04:43;;;;;;;35.92;18.63;;;;;;;3.28;88.34;102264.97;5054873;28;20054;-76
2022/12/02 08:07:08;;;;;;;33.05;16.63;;;;;;;3.28;87.95;102271.19;5064782;28;20474;-74
2022/12/02 08:09:33;;;;;;;34.35;15.98;;;;;;;3.30;87.38;102272.00;5057027;28;20032;-73
2022/12/02 08:11:59;;;;;;;39.33;16.65;;;;;;;3.30;88.19;102279.97;5054277;28;20024;-74
2022/12/02 08:14:24;;;;;;;37.30;17.75;;;;;;;3.30;87.63;102279.13;5063107;28;20017;-74
2022/12/02 08:16:49;;;;;;;37.25;17.48;;;;;;;3.25;88.23;102265.03;5055122;28;20036;-74
2022/12/02 08:19:17;;;;;;;38.22;19.13;;;;;;;3.23;88.28;102272.16;5068221;28;20021;-74
2022/12/02 08:21:42;;;;;;;35.80;17.55;;;;;;;3.23;89.11;102267.72;5069121;28;20020;-74
2022/12/02 08:24:08;;;;;;;38.47;16.75;;;;;;;3.26;89.29;102261.47;5057471;28;20502;-74
2022/12/02 08:26:34;;;;;;;38.85;19.00;;;;;;;3.27;89.22;102264.09;5063677;28;20032;-74
2022/12/02 08:28:59;;;;;;;37.92;17.92;;;;;;;3.29;88.97;102272.03;5058109;28;20029;-74
2022/12/02 08:31:25;;;;;;;38.78;19.45;;;;;;;3.32;89.41;102266.66;5058531;28;20027;-73
2022/12/02 08:33:51;;;;;;;37.47;18.88;;;;;;;3.33;89.54;102265.75;5064946;28;20483;-73
2022/12/02 08:36:17;;;;;;;36.60;18.88;;;;;;;3.32;89.97;102258.69;5069649;28;20029;-73
2022/12/02 08:38:42;;;;;;;36.72;18.33;;;;;;;3.32;90.66;102259.59;5066158;28;20032;-73
2022/12/02 08:41:09;;;;;;;33.00;18.40;;;;;;;3.32;91.01;102250.72;5068819;28;20028;-73
2022/12/02 08:43:34;;;;;;;41.20;18.80;;;;;;;3.33;91.42;102257.78;5062636;28;20079;-73
2022/12/02 08:45:59;;;;;;;39.35;19.63;;;;;;;3.33;91.89;102265.75;5063094;28;20487;-73
2022/12/02 08:48:25;;;;;;;42.08;21.25;;;;;;;3.30;92.20;102264.03;5068092;28;20064;-73
2022/12/02 08:50:50;;;;;;;40.40;19.40;;;;;;;3.31;92.54;102264.94;5074692;28;20508;-73
2022/12/02 08:53:15;;;;;;;39.60;20.05;;;;;;;3.27;92.03;102271.22;5074662;28;20035;-73
2022/12/02 08:55:40;;;;;;;39.15;19.20;;;;;;;3.28;92.11;102270.28;5073376;28;20024;-73
2022/12/02 08:58:06;;;;;;;37.60;19.17;;;;;;;3.26;92.50;102259.69;5074724;28;20020;-73
2022/12/02 09:00:31;;;;;;;38.35;22.50;;;;;;;3.27;92.68;102258.78;5071932;28;20024;-73
2022/12/02 09:02:56;;;;;;;40.03;20.88;;;;;;;3.23;92.40;102253.56;5072338;28;20031;-73
2022/12/02 09:05:22;;;;;;;41.42;21.30;;;;;;;3.23;92.74;102251.78;5069065;28;20388;-73
2022/12/02 09:07:47;;;;;;;40.45;19.55;;;;;;;3.23;92.99;102257.09;5074349;28;20028;-73
2022/12/02 09:10:13;;;;;;;40.47;20.05;;;;;;;3.21;92.61;102252.75;5069532;28;20028;-73
2022/12/02 09:12:38;;;;;;;38.25;18.13;;;;;;;3.21;93.00;102255.41;5071959;28;20028;-73
2022/12/02 09:15:05;;;;;;;42.17;18.58;;;;;;;3.22;93.94;102267.75;5073501;28;20032;-73
2022/12/02 09:17:30;;;;;;;37.65;18.42;;;;;;;3.22;93.40;102258.03;5074294;28;20028;-73
2022/12/02 09:19:55;;;;;;;36.97;18.48;;;;;;;3.24;93.72;102263.31;5067676;28;20020;-73
2022/12/02 09:22:20;;;;;;;33.95;17.98;;;;;;;3.22;93.53;102257.13;5068078;28;20107;-72
2022/12/02 09:24:46;;;;;;;34.55;17.55;;;;;;;3.22;94.04;102265.09;5074069;28;20024;-73
2022/12/02 09:27:11;;;;;;;30.63;15.88;;;;;;;3.24;94.10;102268.63;5072497;28;20098;-73
2022/12/02 09:29:36;;;;;;;31.42;15.80;;;;;;;3.25;94.47;102265.03;5073839;28;20020;-73
2022/12/02 09:32:02;;;;;;;35.28;15.25;;;;;;;3.24;94.33;102261.50;5072697;28;20024;-73
2022/12/02 09:34:27;;;;;;;30.33;14.20;;;;;;;3.23;94.36;102257.09;5073951;28;20479;-73
2022/12/02 09:36:52;;;;;;;33.47;15.52;;;;;;;3.21;94.37;102250.94;5067158;28;20090;-73
2022/12/02 09:39:20;;;;;;;31.63;14.65;;;;;;;3.20;95.14;102261.59;5071666;28;20916;-72
2022/12/02 09:41:45;;;;;;;34.00;14.98;;;;;;;3.21;95.48;102252.75;5073644;28;20051;-73
2022/12/02 09:44:10;;;;;;;31.02;15.50;;;;;;;3.20;95.17;102250.97;5072989;28;20044;-72
2022/12/02 09:46:36;;;;;;;29.48;14.73;;;;;;;3.18;95.27;102247.47;5069231;28;20024;-73
2022/12/02 09:49:03;;;;;;;32.15;15.40;;;;;;;3.18;95.69;102248.34;5071355;28;20036;-73
2022/12/02 09:51:28;;;;;;;32.78;15.55;;;;;;;3.19;96.37;102244.78;5057059;28;20076;-73
2022/12/02 09:53:55;;;;;;;31.77;15.75;;;;;;;3.19;95.95;102236.78;5052053;28;20048;-73
2022/12/02 09:56:21;;;;;;;32.45;14.18;;;;;;;3.20;96.27;102235.91;5067474;28;20086;-72
2022/12/02 09:58:49;;;;;;;31.85;15.07;;;;;;;3.17;96.10;102240.41;5071461;28;20507;-73
2022/12/02 10:01:15;;;;;;;32.03;14.52;;;;;;;3.18;96.40;102236.84;5065497;28;20082;-72
2022/12/02 10:03:43;;;;;;;36.22;15.38;;;;;;;3.18;97.32;102237.72;5071979;28;20028;-72
2022/12/02 10:06:20;;;;;;;31.55;14.88;;;;;;;3.18;97.43;102242.16;5071972;28;20073;-72
2022/12/02 10:08:46;;;;;;;29.13;14.40;;;;;;;3.21;96.93;102242.13;5068853;28;20116;-72
2022/12/02 10:11:26;;;;;;;30.65;14.00;;;;;;;3.21;97.28;102236.78;5072996;28;20439;-72
2022/12/02 10:13:54;;;;;;;34.88;15.90;;;;;;;3.22;97.01;102241.19;5071850;28;20032;-72
2022/12/02 10:16:19;;;;;;;30.27;15.68;;;;;;;3.20;97.07;102235.91;5069299;28;20016;-72
2022/12/02 10:18:45;;;;;;;32.95;15.15;;;;;;;3.20;97.29;102238.56;5072613;28;20090;-72
2022/12/02 10:21:10;;;;;;;32.03;14.10;;;;;;;3.20;97.66;102237.69;5071862;28;20479;-72
2022/12/02 10:23:52;;;;;;;35.00;15.43;;;;;;;3.21;97.84;102231.47;5051747;28;20032;-72
2022/12/02 10:26:17;;;;;;;34.63;15.02;;;;;;;3.19;97.88;102228.81;5059122;28;20013;-72
2022/12/02 10:29:07;;;;;;;32.15;17.17;;;;;;;3.21;97.75;102228.81;5070560;28;20082;-72
2022/12/02 10:31:33;;;;;;;35.75;17.02;;;;;;;3.18;97.18;102227.09;5060602;28;20029;-72
2022/12/02 10:34:02;;;;;;;34.67;15.70;;;;;;;3.14;97.19;102231.59;5053932;28;20024;-72
2022/12/02 10:36:40;;;;;;;35.72;16.30;;;;;;;3.15;97.92;102224.50;5072740;28;20111;-72
2022/12/02 10:39:23;;;;;;;34.35;17.17;;;;;;;3.14;97.92;102223.63;5072391;28;20048;-72
2022/12/02 10:42:04;;;;;;;37.47;18.33;;;;;;;3.13;97.54;102213.91;5072460;28;20031;-72
2022/12/02 10:44:31;;;;;;;36.17;18.35;;;;;;;3.14;97.49;102217.44;5072726;28;20484;-72
2022/12/02 10:47:28;;;;;;;37.15;18.83;;;;;;;3.20;97.72;102213.78;5072314;28;20028;-72
2022/12/02 10:49:55;;;;;;;38.85;18.60;;;;;;;3.19;98.07;102210.22;5038372;28;20045;-72
2022/12/02 10:52:28;;;;;;;44.83;18.65;;;;;;;3.20;97.48;102214.66;5070929;28;20020;-72
2022/12/02 10:54:56;;;;;;;41.05;20.90;;;;;;;3.19;97.19;102206.72;5072247;28;20032;-72
2022/12/02 10:57:28;;;;;;;41.28;20.23;;;;;;;3.14;97.33;102210.34;5071896;28;20024;-72
2022/12/02 10:59:56;;;;;;;43.53;21.15;;;;;;;3.19;97.97;102210.22;5070653;28;20031;-72
2022/12/02 11:02:35;;;;;;;45.80;22.08;;;;;;;3.21;97.71;102210.22;5071673;28;20016;-72
2022/12/02 11:05:26;;;;;;;44.58;20.50;;;;;;;3.22;97.30;102198.66;5062957;28;20107;-72
2022/12/02 11:07:58;;;;;;;43.17;20.75;;;;;;;3.24;97.11;102200.41;5069241;28;20048;-73
2022/12/02 11:10:27;;;;;;;44.25;21.33;;;;;;;3.27;96.83;102195.03;5072066;28;20025;-73
2022/12/02 11:12:53;;;;;;;43.88;20.98;;;;;;;3.28;96.00;102193.22;5069280;28;20383;-72
2022/12/02 11:15:36;;;;;;;42.88;21.35;;;;;;;3.29;96.24;102201.19;5069543;28;20111;-72
2022/12/02 11:18:02;;;;;;;40.03;20.83;;;;;;;3.30;95.76;102199.41;5068566;28;20082;-72
2022/12/02 11:20:32;;;;;;;46.55;22.08;;;;;;;3.31;96.38;102194.06;5063597;28;20108;-72
2022/12/02 11:22:58;;;;;;;45.67;22.25;;;;;;;3.33;96.20;102192.22;5071597;28;20466;-72